sensor_id;sensor_type;location;lat;lon;timestamp;temperature;humidity
15717;DHT22;7960;50.908;4.204;2023-05-24T00:00:36;11.10;99.90
15717;DHT22;7960;50.908;4.204;2023-05-24T00:03:03;11.10;99.90
15717;DHT22;7960;50.908;4.204;2023-05-24T00:05:31;11.20;99.90
15717;DHT22;7960;50.908;4.204;2023-05-24T00:07:58;11.00;99.90
15717;DHT22;7960;50.908;4.204;2023-05-24T00:10:25;10.80;99.90
15717;DHT22;7960;50.908;4.204;2023-05-24T00:12:52;10.90;99.90
15717;DHT22;7960;50.908;4.204;2023-05-24T00:15:19;10.80;99.90
15717;DHT22;7960;50.908;4.204;2023-05-24T00:17:47;10.70;99.90
15717;DHT22;7960;50.908;4.204;2023-05-24T00:20:14;10.80;99.90
15717;DHT22;7960;50.908;4.204;2023-05-24T00:22:41;10.80;99.90
15717;DHT22;7960;50.908;4.204;2023-05-24T00:25:08;10.60;99.90
15717;DHT22;7960;50.908;4.204;2023-05-24T00:27:35;10.50;99.90
15717;DHT22;7960;50.908;4.204;2023-05-24T00:30:03;10.70;99.90
15717;DHT22;7960;50.908;4.204;2023-05-24T00:32:30;10.70;99.90
15717;DHT22;7960;50.908;4.204;2023-05-24T00:34:58;10.90;99.90
15717;DHT22;7960;50.908;4.204;2023-05-24T00:37:25;10.90;99.90
15717;DHT22;7960;50.908;4.204;2023-05-24T00:39:53;10.90;99.90
15717;DHT22;7960;50.908;4.204;2023-05-24T00:42:20;10.90;99.90
15717;DHT22;7960;50.908;4.204;2023-05-24T00:44:47;10.90;99.90
15717;DHT22;7960;50.908;4.204;2023-05-24T00:47:14;10.80;99.90
15717;DHT22;7960;50.908;4.204;2023-05-24T00:49:42;10.70;99.90
15717;DHT22;7960;50.908;4.204;2023-05-24T00:52:10;10.70;99.90
15717;DHT22;7960;50.908;4.204;2023-05-24T00:54:37;10.70;99.90
15717;DHT22;7960;50.908;4.204;2023-05-24T00:57:05;10.60;99.90
15717;DHT22;7960;50.908;4.204;2023-05-24T00:59:32;10.50;99.90
15717;DHT22;7960;50.908;4.204;2023-05-24T01:01:59;10.50;99.90
15717;DHT22;7960;50.908;4.204;2023-05-24T01:04:26;10.40;99.90
15717;DHT22;7960;50.908;4.204;2023-05-24T01:07:15;10.30;99.90
15717;DHT22;7960;50.908;4.204;2023-05-24T01:10:02;10.10;99.90
15717;DHT22;7960;50.908;4.204;2023-05-24T01:12:39;10.30;99.90
15717;DHT22;7960;50.908;4.204;2023-05-24T01:15:17;10.40;99.90
15717;DHT22;7960;50.908;4.204;2023-05-24T01:17:52;10.30;99.90
15717;DHT22;7960;50.908;4.204;2023-05-24T01:20:20;10.30;99.90
15717;DHT22;7960;50.908;4.204;2023-05-24T01:23:14;10.30;99.90
15717;DHT22;7960;50.908;4.204;2023-05-24T01:26:02;10.10;99.90
15717;DHT22;7960;50.908;4.204;2023-05-24T01:28:38;10.20;99.90
15717;DHT22;7960;50.908;4.204;2023-05-24T01:31:05;10.30;99.90
15717;DHT22;7960;50.908;4.204;2023-05-24T01:33:32;10.30;99.90
15717;DHT22;7960;50.908;4.204;2023-05-24T01:35:59;10.30;99.90
15717;DHT22;7960;50.908;4.204;2023-05-24T01:38:26;10.40;99.90
15717;DHT22;7960;50.908;4.204;2023-05-24T01:40:58;10.30;99.90
15717;DHT22;7960;50.908;4.204;2023-05-24T01:43:31;10.10;99.90
15717;DHT22;7960;50.908;4.204;2023-05-24T01:46:06;9.90;99.90
15717;DHT22;7960;50.908;4.204;2023-05-24T01:48:51;10.00;99.90
15717;DHT22;7960;50.908;4.204;2023-05-24T01:51:22;10.10;99.90
15717;DHT22;7960;50.908;4.204;2023-05-24T01:53:51;10.20;99.90
15717;DHT22;7960;50.908;4.204;2023-05-24T01:56:20;10.20;99.90
15717;DHT22;7960;50.908;4.204;2023-05-24T01:58:49;10.20;99.90
15717;DHT22;7960;50.908;4.204;2023-05-24T02:01:19;10.20;99.90
15717;DHT22;7960;50.908;4.204;2023-05-24T02:03:46;10.10;99.90
15717;DHT22;7960;50.908;4.204;2023-05-24T02:06:13;10.20;99.90
15717;DHT22;7960;50.908;4.204;2023-05-24T02:08:40;10.20;99.90
15717;DHT22;7960;50.908;4.204;2023-05-24T02:11:07;10.20;99.90
15717;DHT22;7960;50.908;4.204;2023-05-24T02:13:34;10.10;99.90
15717;DHT22;7960;50.908;4.204;2023-05-24T02:16:01;10.20;99.90
15717;DHT22;7960;50.908;4.204;2023-05-24T02:18:31;10.20;99.90
15717;DHT22;7960;50.908;4.204;2023-05-24T02:20:59;10.10;99.90
15717;DHT22;7960;50.908;4.204;2023-05-24T02:23:26;10.10;99.90
15717;DHT22;7960;50.908;4.204;2023-05-24T02:25:54;10.10;99.90
15717;DHT22;7960;50.908;4.204;2023-05-24T02:28:21;10.10;99.90
15717;DHT22;7960;50.908;4.204;2023-05-24T02:30:48;10.10;99.90
15717;DHT22;7960;50.908;4.204;2023-05-24T02:33:15;10.10;99.90
15717;DHT22;7960;50.908;4.204;2023-05-24T02:35:44;10.10;99.90
15717;DHT22;7960;50.908;4.204;2023-05-24T02:38:10;10.00;99.90
15717;DHT22;7960;50.908;4.204;2023-05-24T02:40:37;10.00;99.90
15717;DHT22;7960;50.908;4.204;2023-05-24T02:43:04;9.90;99.90
15717;DHT22;7960;50.908;4.204;2023-05-24T02:45:31;9.90;99.90
15717;DHT22;7960;50.908;4.204;2023-05-24T02:47:58;10.00;99.90
15717;DHT22;7960;50.908;4.204;2023-05-24T02:50:25;9.90;99.90
15717;DHT22;7960;50.908;4.204;2023-05-24T02:52:53;9.90;99.90
15717;DHT22;7960;50.908;4.204;2023-05-24T02:55:20;9.90;99.90
15717;DHT22;7960;50.908;4.204;2023-05-24T02:57:47;9.90;99.90
15717;DHT22;7960;50.908;4.204;2023-05-24T03:00:15;9.90;99.90
15717;DHT22;7960;50.908;4.204;2023-05-24T03:02:43;9.70;99.90
15717;DHT22;7960;50.908;4.204;2023-05-24T03:05:12;9.70;99.90
15717;DHT22;7960;50.908;4.204;2023-05-24T03:07:39;9.80;99.90
15717;DHT22;7960;50.908;4.204;2023-05-24T03:10:08;9.90;99.90
15717;DHT22;7960;50.908;4.204;2023-05-24T03:12:35;9.90;99.90
15717;DHT22;7960;50.908;4.204;2023-05-24T03:15:03;10.00;99.90
15717;DHT22;7960;50.908;4.204;2023-05-24T03:17:30;10.10;99.90
15717;DHT22;7960;50.908;4.204;2023-05-24T03:19:57;10.00;99.90
15717;DHT22;7960;50.908;4.204;2023-05-24T03:22:23;10.20;99.90
15717;DHT22;7960;50.908;4.204;2023-05-24T03:24:50;10.10;99.90
15717;DHT22;7960;50.908;4.204;2023-05-24T03:27:19;10.20;99.90
15717;DHT22;7960;50.908;4.204;2023-05-24T03:29:46;10.10;99.90
15717;DHT22;7960;50.908;4.204;2023-05-24T03:32:12;9.90;99.90
15717;DHT22;7960;50.908;4.204;2023-05-24T03:34:39;10.00;99.90
15717;DHT22;7960;50.908;4.204;2023-05-24T03:37:06;10.00;99.90
15717;DHT22;7960;50.908;4.204;2023-05-24T03:39:33;9.80;99.90
15717;DHT22;7960;50.908;4.204;2023-05-24T03:42:00;10.00;99.90
15717;DHT22;7960;50.908;4.204;2023-05-24T03:44:28;10.10;99.90
15717;DHT22;7960;50.908;4.204;2023-05-24T03:46:55;10.10;99.90
15717;DHT22;7960;50.908;4.204;2023-05-24T03:49:22;9.90;99.90
15717;DHT22;7960;50.908;4.204;2023-05-24T03:51:49;10.00;99.90
15717;DHT22;7960;50.908;4.204;2023-05-24T03:54:16;10.10;99.90
15717;DHT22;7960;50.908;4.204;2023-05-24T03:56:43;10.00;99.90
15717;DHT22;7960;50.908;4.204;2023-05-24T03:59:11;9.70;99.90
15717;DHT22;7960;50.908;4.204;2023-05-24T04:01:39;9.70;99.90
15717;DHT22;7960;50.908;4.204;2023-05-24T04:04:06;9.80;99.90
15717;DHT22;7960;50.908;4.204;2023-05-24T04:06:33;9.80;99.90
15717;DHT22;7960;50.908;4.204;2023-05-24T04:09:01;9.80;99.90
15717;DHT22;7960;50.908;4.204;2023-05-24T04:11:30;9.90;99.90
15717;DHT22;7960;50.908;4.204;2023-05-24T04:13:57;9.80;99.90
15717;DHT22;7960;50.908;4.204;2023-05-24T04:16:26;9.80;99.90
15717;DHT22;7960;50.908;4.204;2023-05-24T04:18:55;10.10;99.90
15717;DHT22;7960;50.908;4.204;2023-05-24T04:21:22;10.00;99.90
15717;DHT22;7960;50.908;4.204;2023-05-24T04:23:49;9.90;99.90
15717;DHT22;7960;50.908;4.204;2023-05-24T04:26:16;9.70;99.90
15717;DHT22;7960;50.908;4.204;2023-05-24T04:28:43;9.90;99.90
15717;DHT22;7960;50.908;4.204;2023-05-24T04:31:11;9.90;99.90
15717;DHT22;7960;50.908;4.204;2023-05-24T04:33:38;10.00;99.90
15717;DHT22;7960;50.908;4.204;2023-05-24T04:36:07;10.00;99.90
15717;DHT22;7960;50.908;4.204;2023-05-24T04:38:36;10.00;99.90
15717;DHT22;7960;50.908;4.204;2023-05-24T04:41:03;10.10;99.90
15717;DHT22;7960;50.908;4.204;2023-05-24T04:43:31;10.20;99.90
15717;DHT22;7960;50.908;4.204;2023-05-24T04:45:58;10.10;99.90
15717;DHT22;7960;50.908;4.204;2023-05-24T04:48:25;10.20;99.90
15717;DHT22;7960;50.908;4.204;2023-05-24T04:50:53;10.40;99.90
15717;DHT22;7960;50.908;4.204;2023-05-24T04:53:22;10.20;99.90
15717;DHT22;7960;50.908;4.204;2023-05-24T04:55:49;10.20;99.90
15717;DHT22;7960;50.908;4.204;2023-05-24T04:58:17;10.20;99.90
15717;DHT22;7960;50.908;4.204;2023-05-24T05:00:44;10.20;99.90
15717;DHT22;7960;50.908;4.204;2023-05-24T05:03:11;10.30;99.90
15717;DHT22;7960;50.908;4.204;2023-05-24T05:05:38;10.30;99.90
15717;DHT22;7960;50.908;4.204;2023-05-24T05:08:05;10.20;99.90
15717;DHT22;7960;50.908;4.204;2023-05-24T05:10:34;10.10;99.90
15717;DHT22;7960;50.908;4.204;2023-05-24T05:13:01;10.30;99.90
15717;DHT22;7960;50.908;4.204;2023-05-24T05:15:29;10.30;99.90
15717;DHT22;7960;50.908;4.204;2023-05-24T05:17:57;10.20;99.90
15717;DHT22;7960;50.908;4.204;2023-05-24T05:20:24;10.30;99.90
15717;DHT22;7960;50.908;4.204;2023-05-24T05:22:51;10.50;99.90
15717;DHT22;7960;50.908;4.204;2023-05-24T05:25:18;10.60;99.90
15717;DHT22;7960;50.908;4.204;2023-05-24T05:27:47;10.70;99.90
15717;DHT22;7960;50.908;4.204;2023-05-24T05:30:14;10.70;99.90
15717;DHT22;7960;50.908;4.204;2023-05-24T05:32:41;10.80;99.90
15717;DHT22;7960;50.908;4.204;2023-05-24T05:35:08;11.00;99.90
15717;DHT22;7960;50.908;4.204;2023-05-24T05:37:35;11.10;99.90
15717;DHT22;7960;50.908;4.204;2023-05-24T05:40:02;11.20;99.90
15717;DHT22;7960;50.908;4.204;2023-05-24T05:42:29;11.20;99.90
15717;DHT22;7960;50.908;4.204;2023-05-24T05:44:58;11.20;99.90
15717;DHT22;7960;50.908;4.204;2023-05-24T05:47:24;11.20;99.90
15717;DHT22;7960;50.908;4.204;2023-05-24T05:49:51;11.50;99.90
15717;DHT22;7960;50.908;4.204;2023-05-24T05:52:18;11.70;99.90
15717;DHT22;7960;50.908;4.204;2023-05-24T05:54:45;11.70;99.90
15717;DHT22;7960;50.908;4.204;2023-05-24T05:57:12;11.80;99.90
15717;DHT22;7960;50.908;4.204;2023-05-24T05:59:40;11.90;99.90
15717;DHT22;7960;50.908;4.204;2023-05-24T06:02:11;11.50;99.90
15717;DHT22;7960;50.908;4.204;2023-05-24T06:04:38;11.30;99.90
15717;DHT22;7960;50.908;4.204;2023-05-24T06:07:05;11.20;99.90
15717;DHT22;7960;50.908;4.204;2023-05-24T06:09:32;11.30;99.90
15717;DHT22;7960;50.908;4.204;2023-05-24T06:11:59;11.50;99.90
15717;DHT22;7960;50.908;4.204;2023-05-24T06:14:26;11.40;99.90
15717;DHT22;7960;50.908;4.204;2023-05-24T06:16:53;11.30;99.90
15717;DHT22;7960;50.908;4.204;2023-05-24T06:19:22;11.60;99.90
15717;DHT22;7960;50.908;4.204;2023-05-24T06:21:49;11.70;99.90
15717;DHT22;7960;50.908;4.204;2023-05-24T06:24:17;11.90;99.90
15717;DHT22;7960;50.908;4.204;2023-05-24T06:26:45;11.90;99.90
15717;DHT22;7960;50.908;4.204;2023-05-24T06:29:13;11.90;99.90
15717;DHT22;7960;50.908;4.204;2023-05-24T06:31:40;11.90;99.90
15717;DHT22;7960;50.908;4.204;2023-05-24T06:34:10;12.00;99.90
15717;DHT22;7960;50.908;4.204;2023-05-24T06:36:39;12.10;99.90
15717;DHT22;7960;50.908;4.204;2023-05-24T06:39:07;12.20;99.90
15717;DHT22;7960;50.908;4.204;2023-05-24T06:41:35;12.20;99.90
15717;DHT22;7960;50.908;4.204;2023-05-24T06:44:02;12.30;99.90
15717;DHT22;7960;50.908;4.204;2023-05-24T06:46:34;12.40;99.90
15717;DHT22;7960;50.908;4.204;2023-05-24T06:49:01;12.50;99.90
15717;DHT22;7960;50.908;4.204;2023-05-24T06:51:30;12.60;99.90
15717;DHT22;7960;50.908;4.204;2023-05-24T06:53:59;12.80;99.90
15717;DHT22;7960;50.908;4.204;2023-05-24T06:56:26;13.00;99.90
15717;DHT22;7960;50.908;4.204;2023-05-24T06:58:53;13.10;99.90
15717;DHT22;7960;50.908;4.204;2023-05-24T07:01:21;13.00;99.90
15717;DHT22;7960;50.908;4.204;2023-05-24T07:03:48;13.00;99.90
15717;DHT22;7960;50.908;4.204;2023-05-24T07:06:16;13.00;99.90
15717;DHT22;7960;50.908;4.204;2023-05-24T07:08:43;13.20;99.90
15717;DHT22;7960;50.908;4.204;2023-05-24T07:11:13;13.20;99.90
15717;DHT22;7960;50.908;4.204;2023-05-24T07:13:40;13.20;99.90
15717;DHT22;7960;50.908;4.204;2023-05-24T07:16:07;13.40;99.90
15717;DHT22;7960;50.908;4.204;2023-05-24T07:18:35;13.40;99.90
15717;DHT22;7960;50.908;4.204;2023-05-24T07:21:02;13.50;99.90
15717;DHT22;7960;50.908;4.204;2023-05-24T07:23:29;13.40;99.90
15717;DHT22;7960;50.908;4.204;2023-05-24T07:25:57;13.30;99.90
15717;DHT22;7960;50.908;4.204;2023-05-24T07:28:25;13.30;99.90
15717;DHT22;7960;50.908;4.204;2023-05-24T07:30:52;13.40;99.90
15717;DHT22;7960;50.908;4.204;2023-05-24T07:33:19;13.40;99.90
15717;DHT22;7960;50.908;4.204;2023-05-24T07:35:46;13.20;99.90
15717;DHT22;7960;50.908;4.204;2023-05-24T07:38:16;13.20;99.90
15717;DHT22;7960;50.908;4.204;2023-05-24T07:40:43;13.40;99.90
15717;DHT22;7960;50.908;4.204;2023-05-24T07:43:10;13.50;99.90
15717;DHT22;7960;50.908;4.204;2023-05-24T07:45:38;13.70;99.90
15717;DHT22;7960;50.908;4.204;2023-05-24T07:48:05;13.60;99.90
15717;DHT22;7960;50.908;4.204;2023-05-24T07:50:32;13.70;99.90
15717;DHT22;7960;50.908;4.204;2023-05-24T07:52:59;13.80;99.90
15717;DHT22;7960;50.908;4.204;2023-05-24T07:55:26;13.90;99.90
15717;DHT22;7960;50.908;4.204;2023-05-24T07:57:53;14.00;99.90
15717;DHT22;7960;50.908;4.204;2023-05-24T08:00:21;13.80;99.90
15717;DHT22;7960;50.908;4.204;2023-05-24T08:02:49;13.70;99.90
15717;DHT22;7960;50.908;4.204;2023-05-24T08:05:19;14.00;99.90
15717;DHT22;7960;50.908;4.204;2023-05-24T08:07:46;14.10;99.90
15717;DHT22;7960;50.908;4.204;2023-05-24T08:10:13;14.10;99.90
15717;DHT22;7960;50.908;4.204;2023-05-24T08:12:40;14.30;99.90
15717;DHT22;7960;50.908;4.204;2023-05-24T08:15:08;14.40;99.90
15717;DHT22;7960;50.908;4.204;2023-05-24T08:17:35;14.50;99.90
15717;DHT22;7960;50.908;4.204;2023-05-24T08:20:04;14.30;99.90
15717;DHT22;7960;50.908;4.204;2023-05-24T08:22:33;14.10;99.90
15717;DHT22;7960;50.908;4.204;2023-05-24T08:25:00;14.30;99.90
15717;DHT22;7960;50.908;4.204;2023-05-24T08:27:28;14.50;99.90
15717;DHT22;7960;50.908;4.204;2023-05-24T08:29:55;14.50;99.90
15717;DHT22;7960;50.908;4.204;2023-05-24T08:32:22;14.60;99.90
15717;DHT22;7960;50.908;4.204;2023-05-24T08:34:49;14.70;99.90
15717;DHT22;7960;50.908;4.204;2023-05-24T08:37:17;14.70;99.90
15717;DHT22;7960;50.908;4.204;2023-05-24T08:39:47;14.60;99.80
15717;DHT22;7960;50.908;4.204;2023-05-24T08:42:15;14.60;99.70
15717;DHT22;7960;50.908;4.204;2023-05-24T08:44:46;14.70;99.30
15717;DHT22;7960;50.908;4.204;2023-05-24T08:47:14;14.80;99.00
15717;DHT22;7960;50.908;4.204;2023-05-24T08:49:42;15.00;99.20
15717;DHT22;7960;50.908;4.204;2023-05-24T08:52:09;15.10;99.30
15717;DHT22;7960;50.908;4.204;2023-05-24T08:54:39;15.20;99.30
15717;DHT22;7960;50.908;4.204;2023-05-24T08:57:08;15.30;99.20
15717;DHT22;7960;50.908;4.204;2023-05-24T08:59:37;15.40;99.20
15717;DHT22;7960;50.908;4.204;2023-05-24T09:02:05;15.50;99.20
15717;DHT22;7960;50.908;4.204;2023-05-24T09:04:35;15.60;99.00
15717;DHT22;7960;50.908;4.204;2023-05-24T09:07:05;15.60;98.40
15717;DHT22;7960;50.908;4.204;2023-05-24T09:09:33;15.70;98.60
15717;DHT22;7960;50.908;4.204;2023-05-24T09:12:04;15.70;98.00
15717;DHT22;7960;50.908;4.204;2023-05-24T09:14:33;15.40;97.70
15717;DHT22;7960;50.908;4.204;2023-05-24T09:17:01;15.70;98.00
15717;DHT22;7960;50.908;4.204;2023-05-24T09:19:28;15.90;98.10
15717;DHT22;7960;50.908;4.204;2023-05-24T09:21:55;15.80;97.50
15717;DHT22;7960;50.908;4.204;2023-05-24T09:24:23;15.90;97.80
15717;DHT22;7960;50.908;4.204;2023-05-24T09:26:50;16.10;97.60
15717;DHT22;7960;50.908;4.204;2023-05-24T09:29:22;15.80;96.80
15717;DHT22;7960;50.908;4.204;2023-05-24T09:31:55;15.90;97.00
15717;DHT22;7960;50.908;4.204;2023-05-24T09:34:22;16.30;97.00
15717;DHT22;7960;50.908;4.204;2023-05-24T09:36:51;16.50;96.10
15717;DHT22;7960;50.908;4.204;2023-05-24T09:39:19;16.70;95.70
15717;DHT22;7960;50.908;4.204;2023-05-24T09:41:51;16.60;94.50
15717;DHT22;7960;50.908;4.204;2023-05-24T09:44:26;16.30;94.30
15717;DHT22;7960;50.908;4.204;2023-05-24T09:46:53;16.60;93.90
15717;DHT22;7960;50.908;4.204;2023-05-24T09:49:27;16.40;93.70
15717;DHT22;7960;50.908;4.204;2023-05-24T09:51:54;16.70;94.10
15717;DHT22;7960;50.908;4.204;2023-05-24T09:54:22;16.70;93.70
15717;DHT22;7960;50.908;4.204;2023-05-24T09:56:50;16.90;93.20
15717;DHT22;7960;50.908;4.204;2023-05-24T09:59:18;17.00;92.80
15717;DHT22;7960;50.908;4.204;2023-05-24T10:01:46;17.30;92.20
15717;DHT22;7960;50.908;4.204;2023-05-24T10:04:18;17.30;92.00
15717;DHT22;7960;50.908;4.204;2023-05-24T10:06:45;17.30;91.30
15717;DHT22;7960;50.908;4.204;2023-05-24T10:09:13;17.40;91.40
15717;DHT22;7960;50.908;4.204;2023-05-24T10:11:40;17.20;91.30
15717;DHT22;7960;50.908;4.204;2023-05-24T10:14:08;17.30;91.30
15717;DHT22;7960;50.908;4.204;2023-05-24T10:16:36;17.30;90.80
15717;DHT22;7960;50.908;4.204;2023-05-24T10:19:05;17.20;91.00
15717;DHT22;7960;50.908;4.204;2023-05-24T10:21:35;17.60;91.80
15717;DHT22;7960;50.908;4.204;2023-05-24T10:24:04;17.40;90.90
15717;DHT22;7960;50.908;4.204;2023-05-24T10:26:33;17.70;90.70
15717;DHT22;7960;50.908;4.204;2023-05-24T10:29:06;17.70;90.70
15717;DHT22;7960;50.908;4.204;2023-05-24T10:31:38;17.80;90.90
15717;DHT22;7960;50.908;4.204;2023-05-24T10:34:10;18.20;90.90
15717;DHT22;7960;50.908;4.204;2023-05-24T10:36:38;18.20;90.40
15717;DHT22;7960;50.908;4.204;2023-05-24T10:39:07;18.40;90.50
15717;DHT22;7960;50.908;4.204;2023-05-24T10:41:40;18.30;89.10
15717;DHT22;7960;50.908;4.204;2023-05-24T10:44:10;18.30;88.40
15717;DHT22;7960;50.908;4.204;2023-05-24T10:47:02;18.30;87.70
15717;DHT22;7960;50.908;4.204;2023-05-24T10:49:30;18.10;87.90
15717;DHT22;7960;50.908;4.204;2023-05-24T10:52:00;18.30;88.70
15717;DHT22;7960;50.908;4.204;2023-05-24T10:54:28;18.30;86.30
15717;DHT22;7960;50.908;4.204;2023-05-24T10:56:54;18.40;85.90
15717;DHT22;7960;50.908;4.204;2023-05-24T10:59:32;18.40;86.00
15717;DHT22;7960;50.908;4.204;2023-05-24T11:02:03;18.40;85.90
15717;DHT22;7960;50.908;4.204;2023-05-24T11:04:38;18.50;86.50
15717;DHT22;7960;50.908;4.204;2023-05-24T11:07:08;18.40;85.60
15717;DHT22;7960;50.908;4.204;2023-05-24T11:09:37;18.40;85.30
15717;DHT22;7960;50.908;4.204;2023-05-24T11:12:13;18.60;86.10
15717;DHT22;7960;50.908;4.204;2023-05-24T11:14:41;18.40;85.10
15717;DHT22;7960;50.908;4.204;2023-05-24T11:17:12;18.60;86.20
15717;DHT22;7960;50.908;4.204;2023-05-24T11:19:46;18.90;85.30
15717;DHT22;7960;50.908;4.204;2023-05-24T11:22:15;18.70;84.80
15717;DHT22;7960;50.908;4.204;2023-05-24T11:24:43;18.80;84.50
15717;DHT22;7960;50.908;4.204;2023-05-24T11:27:11;19.30;85.30
15717;DHT22;7960;50.908;4.204;2023-05-24T11:29:42;19.60;84.00
15717;DHT22;7960;50.908;4.204;2023-05-24T11:32:13;19.30;82.50
15717;DHT22;7960;50.908;4.204;2023-05-24T11:34:40;19.70;83.00
15717;DHT22;7960;50.908;4.204;2023-05-24T11:37:11;19.60;81.70
15717;DHT22;7960;50.908;4.204;2023-05-24T11:39:38;19.40;81.60
15717;DHT22;7960;50.908;4.204;2023-05-24T11:42:06;19.40;82.60
15717;DHT22;7960;50.908;4.204;2023-05-24T11:44:34;19.40;82.70
15717;DHT22;7960;50.908;4.204;2023-05-24T11:47:05;19.20;83.80
15717;DHT22;7960;50.908;4.204;2023-05-24T11:49:32;19.30;84.80
15717;DHT22;7960;50.908;4.204;2023-05-24T11:52:00;19.30;83.40
15717;DHT22;7960;50.908;4.204;2023-05-24T11:54:29;19.50;83.80
15717;DHT22;7960;50.908;4.204;2023-05-24T11:56:58;19.70;84.10
15717;DHT22;7960;50.908;4.204;2023-05-24T11:59:26;19.60;84.40
15717;DHT22;7960;50.908;4.204;2023-05-24T12:01:56;19.20;83.30
15717;DHT22;7960;50.908;4.204;2023-05-24T12:04:25;19.10;83.30
15717;DHT22;7960;50.908;4.204;2023-05-24T12:06:52;19.10;82.80
15717;DHT22;7960;50.908;4.204;2023-05-24T12:09:19;19.30;81.30
15717;DHT22;7960;50.908;4.204;2023-05-24T12:11:49;19.30;79.50
15717;DHT22;7960;50.908;4.204;2023-05-24T12:14:17;19.20;79.90
15717;DHT22;7960;50.908;4.204;2023-05-24T12:16:45;19.30;79.10
15717;DHT22;7960;50.908;4.204;2023-05-24T12:19:15;18.90;79.20
15717;DHT22;7960;50.908;4.204;2023-05-24T12:21:42;19.30;80.90
15717;DHT22;7960;50.908;4.204;2023-05-24T12:24:10;19.80;81.10
15717;DHT22;7960;50.908;4.204;2023-05-24T12:26:40;19.70;79.50
15717;DHT22;7960;50.908;4.204;2023-05-24T12:29:10;19.70;80.90
15717;DHT22;7960;50.908;4.204;2023-05-24T12:31:39;19.70;79.20
15717;DHT22;7960;50.908;4.204;2023-05-24T12:34:09;19.00;79.80
15717;DHT22;7960;50.908;4.204;2023-05-24T12:36:37;19.40;80.90
15717;DHT22;7960;50.908;4.204;2023-05-24T12:39:18;19.90;80.80
15717;DHT22;7960;50.908;4.204;2023-05-24T12:41:49;19.70;79.50
15717;DHT22;7960;50.908;4.204;2023-05-24T12:44:21;19.30;80.60
15717;DHT22;7960;50.908;4.204;2023-05-24T12:46:48;19.30;81.50
15717;DHT22;7960;50.908;4.204;2023-05-24T12:49:17;18.90;82.10
15717;DHT22;7960;50.908;4.204;2023-05-24T12:51:44;18.90;82.40
15717;DHT22;7960;50.908;4.204;2023-05-24T12:54:11;19.20;82.40
15717;DHT22;7960;50.908;4.204;2023-05-24T12:56:38;19.30;81.50
15717;DHT22;7960;50.908;4.204;2023-05-24T12:59:06;19.10;82.10
15717;DHT22;7960;50.908;4.204;2023-05-24T13:01:34;19.00;83.00
15717;DHT22;7960;50.908;4.204;2023-05-24T13:04:01;18.90;82.60
15717;DHT22;7960;50.908;4.204;2023-05-24T13:06:28;19.20;82.70
15717;DHT22;7960;50.908;4.204;2023-05-24T13:08:55;19.10;82.30
15717;DHT22;7960;50.908;4.204;2023-05-24T13:11:22;18.90;82.30
15717;DHT22;7960;50.908;4.204;2023-05-24T13:13:50;19.10;82.60
15717;DHT22;7960;50.908;4.204;2023-05-24T13:16:17;18.90;81.90
15717;DHT22;7960;50.908;4.204;2023-05-24T13:18:46;18.90;81.90
15717;DHT22;7960;50.908;4.204;2023-05-24T13:21:13;19.10;82.10
15717;DHT22;7960;50.908;4.204;2023-05-24T13:23:39;19.10;81.90
15717;DHT22;7960;50.908;4.204;2023-05-24T13:26:07;19.10;82.20
15717;DHT22;7960;50.908;4.204;2023-05-24T13:28:34;18.90;81.10
15717;DHT22;7960;50.908;4.204;2023-05-24T13:31:01;19.30;82.50
15717;DHT22;7960;50.908;4.204;2023-05-24T13:33:29;19.80;81.30
15717;DHT22;7960;50.908;4.204;2023-05-24T13:35:58;19.60;79.60
15717;DHT22;7960;50.908;4.204;2023-05-24T13:38:24;19.30;80.10
15717;DHT22;7960;50.908;4.204;2023-05-24T13:40:52;19.00;79.90
15717;DHT22;7960;50.908;4.204;2023-05-24T13:43:19;19.10;80.70
15717;DHT22;7960;50.908;4.204;2023-05-24T13:45:47;20.00;80.50
15717;DHT22;7960;50.908;4.204;2023-05-24T13:48:14;20.00;78.40
15717;DHT22;7960;50.908;4.204;2023-05-24T13:50:43;20.80;77.40
15717;DHT22;7960;50.908;4.204;2023-05-24T13:53:12;21.00;74.70
15717;DHT22;7960;50.908;4.204;2023-05-24T13:55:39;20.40;75.60
15717;DHT22;7960;50.908;4.204;2023-05-24T13:58:06;19.90;75.80
15717;DHT22;7960;50.908;4.204;2023-05-24T14:00:33;20.00;75.90
15717;DHT22;7960;50.908;4.204;2023-05-24T14:03:01;19.80;75.70
15717;DHT22;7960;50.908;4.204;2023-05-24T14:05:29;19.50;75.60
15717;DHT22;7960;50.908;4.204;2023-05-24T14:07:57;20.40;77.50
15717;DHT22;7960;50.908;4.204;2023-05-24T14:10:32;21.10;75.30
15717;DHT22;7960;50.908;4.204;2023-05-24T14:13:01;21.40;73.30
15717;DHT22;7960;50.908;4.204;2023-05-24T14:15:28;21.20;73.00
15717;DHT22;7960;50.908;4.204;2023-05-24T14:17:55;20.60;72.70
15717;DHT22;7960;50.908;4.204;2023-05-24T14:20:23;20.60;73.40
15717;DHT22;7960;50.908;4.204;2023-05-24T14:22:50;20.10;74.30
15717;DHT22;7960;50.908;4.204;2023-05-24T14:25:17;19.80;75.10
15717;DHT22;7960;50.908;4.204;2023-05-24T14:27:45;19.50;76.00
15717;DHT22;7960;50.908;4.204;2023-05-24T14:30:13;19.60;77.40
15717;DHT22;7960;50.908;4.204;2023-05-24T14:32:40;19.60;77.80
15717;DHT22;7960;50.908;4.204;2023-05-24T14:35:07;19.60;76.70
15717;DHT22;7960;50.908;4.204;2023-05-24T14:37:34;19.50;77.00
15717;DHT22;7960;50.908;4.204;2023-05-24T14:40:01;19.40;77.60
15717;DHT22;7960;50.908;4.204;2023-05-24T14:42:28;19.30;78.40
15717;DHT22;7960;50.908;4.204;2023-05-24T14:44:57;19.20;79.00
15717;DHT22;7960;50.908;4.204;2023-05-24T14:47:24;19.10;78.60
15717;DHT22;7960;50.908;4.204;2023-05-24T14:49:51;19.00;78.80
15717;DHT22;7960;50.908;4.204;2023-05-24T14:52:18;19.00;79.50
15717;DHT22;7960;50.908;4.204;2023-05-24T14:54:45;18.90;79.70
15717;DHT22;7960;50.908;4.204;2023-05-24T14:57:12;19.00;80.70
15717;DHT22;7960;50.908;4.204;2023-05-24T14:59:39;19.20;80.70
15717;DHT22;7960;50.908;4.204;2023-05-24T15:02:07;19.30;80.40
15717;DHT22;7960;50.908;4.204;2023-05-24T15:04:34;19.50;80.30
15717;DHT22;7960;50.908;4.204;2023-05-24T15:07:01;19.50;79.10
15717;DHT22;7960;50.908;4.204;2023-05-24T15:09:28;19.50;78.30
15717;DHT22;7960;50.908;4.204;2023-05-24T15:11:54;19.30;78.50
15717;DHT22;7960;50.908;4.204;2023-05-24T15:14:21;19.30;79.50
15717;DHT22;7960;50.908;4.204;2023-05-24T15:16:49;19.10;79.10
15717;DHT22;7960;50.908;4.204;2023-05-24T15:19:18;19.10;79.80
15717;DHT22;7960;50.908;4.204;2023-05-24T15:21:45;19.20;81.00
15717;DHT22;7960;50.908;4.204;2023-05-24T15:24:12;19.30;80.50
15717;DHT22;7960;50.908;4.204;2023-05-24T15:26:39;19.30;80.60
15717;DHT22;7960;50.908;4.204;2023-05-24T15:29:06;19.30;80.60
15717;DHT22;7960;50.908;4.204;2023-05-24T15:31:33;19.30;80.20
15717;DHT22;7960;50.908;4.204;2023-05-24T15:34:00;19.10;79.70
15717;DHT22;7960;50.908;4.204;2023-05-24T15:36:30;19.20;80.20
15717;DHT22;7960;50.908;4.204;2023-05-24T15:38:57;19.30;80.70
15717;DHT22;7960;50.908;4.204;2023-05-24T15:41:24;19.30;81.20
15717;DHT22;7960;50.908;4.204;2023-05-24T15:43:52;19.30;80.90
15717;DHT22;7960;50.908;4.204;2023-05-24T15:46:20;19.30;81.10
15717;DHT22;7960;50.908;4.204;2023-05-24T15:48:47;19.20;81.60
15717;DHT22;7960;50.908;4.204;2023-05-24T15:51:14;19.10;81.80
15717;DHT22;7960;50.908;4.204;2023-05-24T15:53:42;19.10;82.20